sensor_id;sensor_type;location;lat;lon;timestamp;P1;durP1;ratioP1;P2;durP2;ratioP2
42200;SDS011;27869;51.442;7.540;2023-07-24T00:02:23;7.00;;;1.70;;
42200;SDS011;27869;51.442;7.540;2023-07-24T00:04:50;6.90;;;1.80;;
42200;SDS011;27869;51.442;7.540;2023-07-24T00:07:17;6.10;;;1.85;;
42200;SDS011;27869;51.442;7.540;2023-07-24T00:09:44;4.18;;;1.50;;
42200;SDS011;27869;51.442;7.540;2023-07-24T00:12:11;6.57;;;2.05;;
42200;SDS011;27869;51.442;7.540;2023-07-24T00:14:37;4.18;;;1.58;;
42200;SDS011;27869;51.442;7.540;2023-07-24T00:17:04;8.20;;;1.98;;
42200;SDS011;27869;51.442;7.540;2023-07-24T00:19:33;6.13;;;1.80;;
42200;SDS011;27869;51.442;7.540;2023-07-24T00:22:00;6.13;;;1.80;;
42200;SDS011;27869;51.442;7.540;2023-07-24T00:24:27;8.52;;;2.00;;
42200;SDS011;27869;51.442;7.540;2023-07-24T00:26:53;5.30;;;1.75;;
42200;SDS011;27869;51.442;7.540;2023-07-24T00:29:20;6.13;;;1.75;;
42200;SDS011;27869;51.442;7.540;2023-07-24T00:31:47;7.30;;;2.17;;
42200;SDS011;27869;51.442;7.540;2023-07-24T00:34:14;5.70;;;1.83;;
42200;SDS011;27869;51.442;7.540;2023-07-24T00:36:42;5.00;;;1.80;;
42200;SDS011;27869;51.442;7.540;2023-07-24T00:39:09;5.03;;;1.90;;
42200;SDS011;27869;51.442;7.540;2023-07-24T00:41:36;5.80;;;1.67;;
42200;SDS011;27869;51.442;7.540;2023-07-24T00:44:05;7.47;;;1.80;;
42200;SDS011;27869;51.442;7.540;2023-07-24T00:46:32;6.65;;;1.88;;
42200;SDS011;27869;51.442;7.540;2023-07-24T00:49:01;8.15;;;1.83;;
42200;SDS011;27869;51.442;7.540;2023-07-24T00:51:29;7.35;;;1.85;;
42200;SDS011;27869;51.442;7.540;2023-07-24T00:53:57;6.13;;;1.70;;
42200;SDS011;27869;51.442;7.540;2023-07-24T00:56:27;4.75;;;1.60;;
42200;SDS011;27869;51.442;7.540;2023-07-24T00:58:55;4.68;;;1.52;;
42200;SDS011;27869;51.442;7.540;2023-07-24T01:01:22;5.72;;;1.60;;
42200;SDS011;27869;51.442;7.540;2023-07-24T01:03:50;8.52;;;1.90;;
42200;SDS011;27869;51.442;7.540;2023-07-24T01:06:18;5.90;;;1.55;;
42200;SDS011;27869;51.442;7.540;2023-07-24T01:08:45;7.13;;;1.60;;
42200;SDS011;27869;51.442;7.540;2023-07-24T01:11:15;5.47;;;1.45;;
42200;SDS011;27869;51.442;7.540;2023-07-24T01:13:47;5.90;;;1.30;;
42200;SDS011;27869;51.442;7.540;2023-07-24T01:16:22;5.68;;;1.77;;
42200;SDS011;27869;51.442;7.540;2023-07-24T01:18:51;6.32;;;2.15;;
42200;SDS011;27869;51.442;7.540;2023-07-24T01:21:24;5.30;;;1.63;;
42200;SDS011;27869;51.442;7.540;2023-07-24T01:24:03;7.00;;;1.95;;
42200;SDS011;27869;51.442;7.540;2023-07-24T01:26:42;6.93;;;1.50;;
42200;SDS011;27869;51.442;7.540;2023-07-24T01:31:36;5.72;;;1.42;;
42200;SDS011;27869;51.442;7.540;2023-07-24T01:34:03;4.05;;;1.55;;
42200;SDS011;27869;51.442;7.540;2023-07-24T01:36:30;7.95;;;1.67;;
42200;SDS011;27869;51.442;7.540;2023-07-24T01:38:57;3.80;;;1.33;;
42200;SDS011;27869;51.442;7.540;2023-07-24T01:41:25;9.07;;;1.80;;
42200;SDS011;27869;51.442;7.540;2023-07-24T01:43:54;8.70;;;1.73;;
42200;SDS011;27869;51.442;7.540;2023-07-24T01:46:21;6.70;;;1.88;;
42200;SDS011;27869;51.442;7.540;2023-07-24T01:48:48;5.50;;;1.50;;
42200;SDS011;27869;51.442;7.540;2023-07-24T01:51:15;5.25;;;1.58;;
42200;SDS011;27869;51.442;7.540;2023-07-24T01:53:42;6.05;;;1.85;;
42200;SDS011;27869;51.442;7.540;2023-07-24T01:56:10;7.10;;;1.83;;
42200;SDS011;27869;51.442;7.540;2023-07-24T01:58:37;7.25;;;1.75;;
42200;SDS011;27869;51.442;7.540;2023-07-24T02:01:05;6.55;;;1.80;;
42200;SDS011;27869;51.442;7.540;2023-07-24T02:03:32;6.88;;;1.75;;
42200;SDS011;27869;51.442;7.540;2023-07-24T02:05:59;4.38;;;1.30;;
42200;SDS011;27869;51.442;7.540;2023-07-24T02:08:26;6.55;;;1.70;;
42200;SDS011;27869;51.442;7.540;2023-07-24T02:10:53;5.45;;;1.60;;
42200;SDS011;27869;51.442;7.540;2023-07-24T02:13:19;5.18;;;1.50;;
42200;SDS011;27869;51.442;7.540;2023-07-24T02:15:46;6.65;;;1.67;;
42200;SDS011;27869;51.442;7.540;2023-07-24T02:18:15;6.45;;;1.77;;
42200;SDS011;27869;51.442;7.540;2023-07-24T02:20:47;5.10;;;1.67;;
42200;SDS011;27869;51.442;7.540;2023-07-24T02:23:15;4.65;;;1.60;;
42200;SDS011;27869;51.442;7.540;2023-07-24T02:25:42;5.20;;;1.50;;
42200;SDS011;27869;51.442;7.540;2023-07-24T02:28:09;6.82;;;1.70;;
42200;SDS011;27869;51.442;7.540;2023-07-24T02:30:37;4.95;;;1.70;;
42200;SDS011;27869;51.442;7.540;2023-07-24T02:33:04;7.88;;;2.05;;
42200;SDS011;27869;51.442;7.540;2023-07-24T02:35:37;5.55;;;1.90;;
42200;SDS011;27869;51.442;7.540;2023-07-24T02:38:05;6.85;;;1.80;;
42200;SDS011;27869;51.442;7.540;2023-07-24T02:40:32;4.85;;;1.60;;
42200;SDS011;27869;51.442;7.540;2023-07-24T02:42:59;8.75;;;1.95;;
42200;SDS011;27869;51.442;7.540;2023-07-24T02:45:26;8.75;;;2.30;;
42200;SDS011;27869;51.442;7.540;2023-07-24T02:47:53;7.20;;;1.90;;
42200;SDS011;27869;51.442;7.540;2023-07-24T02:50:20;8.38;;;1.98;;
42200;SDS011;27869;51.442;7.540;2023-07-24T02:52:48;6.57;;;1.95;;
42200;SDS011;27869;51.442;7.540;2023-07-24T02:55:15;7.20;;;2.00;;
42200;SDS011;27869;51.442;7.540;2023-07-24T02:57:41;6.03;;;1.88;;
42200;SDS011;27869;51.442;7.540;2023-07-24T03:00:09;5.63;;;1.80;;
42200;SDS011;27869;51.442;7.540;2023-07-24T03:02:37;7.25;;;2.00;;
42200;SDS011;27869;51.442;7.540;2023-07-24T03:05:04;6.65;;;2.20;;
42200;SDS011;27869;51.442;7.540;2023-07-24T03:07:31;7.63;;;1.85;;
42200;SDS011;27869;51.442;7.540;2023-07-24T03:09:59;7.28;;;1.90;;
42200;SDS011;27869;51.442;7.540;2023-07-24T03:12:26;7.78;;;2.10;;
42200;SDS011;27869;51.442;7.540;2023-07-24T03:14:53;8.35;;;2.38;;
42200;SDS011;27869;51.442;7.540;2023-07-24T03:17:20;7.80;;;2.13;;
42200;SDS011;27869;51.442;7.540;2023-07-24T03:19:48;8.23;;;2.13;;
42200;SDS011;27869;51.442;7.540;2023-07-24T03:22:15;9.23;;;2.10;;
42200;SDS011;27869;51.442;7.540;2023-07-24T03:24:42;7.05;;;2.10;;
42200;SDS011;27869;51.442;7.540;2023-07-24T03:27:10;8.60;;;1.85;;
42200;SDS011;27869;51.442;7.540;2023-07-24T03:29:37;5.93;;;1.90;;
42200;SDS011;27869;51.442;7.540;2023-07-24T03:32:06;8.95;;;1.88;;
42200;SDS011;27869;51.442;7.540;2023-07-24T03:34:33;7.05;;;2.30;;
42200;SDS011;27869;51.442;7.540;2023-07-24T03:37:00;8.20;;;2.25;;
42200;SDS011;27869;51.442;7.540;2023-07-24T03:39:27;8.48;;;2.00;;
42200;SDS011;27869;51.442;7.540;2023-07-24T03:41:53;6.53;;;2.00;;
42200;SDS011;27869;51.442;7.540;2023-07-24T03:44:22;7.40;;;2.15;;
42200;SDS011;27869;51.442;7.540;2023-07-24T03:46:48;7.72;;;2.00;;
42200;SDS011;27869;51.442;7.540;2023-07-24T03:49:15;7.50;;;1.98;;
42200;SDS011;27869;51.442;7.540;2023-07-24T03:51:42;7.32;;;2.40;;
42200;SDS011;27869;51.442;7.540;2023-07-24T03:54:09;8.13;;;2.20;;
42200;SDS011;27869;51.442;7.540;2023-07-24T03:56:36;8.00;;;2.38;;
42200;SDS011;27869;51.442;7.540;2023-07-24T03:59:03;6.57;;;1.98;;
42200;SDS011;27869;51.442;7.540;2023-07-24T04:01:31;7.65;;;2.22;;
42200;SDS011;27869;51.442;7.540;2023-07-24T04:03:58;8.38;;;2.22;;
42200;SDS011;27869;51.442;7.540;2023-07-24T04:06:25;9.43;;;2.60;;
42200;SDS011;27869;51.442;7.540;2023-07-24T04:08:52;8.30;;;2.20;;
42200;SDS011;27869;51.442;7.540;2023-07-24T04:11:18;8.55;;;2.30;;
42200;SDS011;27869;51.442;7.540;2023-07-24T04:13:45;8.02;;;2.30;;
42200;SDS011;27869;51.442;7.540;2023-07-24T04:16:12;8.20;;;2.30;;
42200;SDS011;27869;51.442;7.540;2023-07-24T04:18:40;9.15;;;2.22;;
42200;SDS011;27869;51.442;7.540;2023-07-24T04:21:07;10.02;;;2.40;;
42200;SDS011;27869;51.442;7.540;2023-07-24T04:23:34;7.38;;;2.30;;
42200;SDS011;27869;51.442;7.540;2023-07-24T04:26:01;7.70;;;2.10;;
42200;SDS011;27869;51.442;7.540;2023-07-24T04:28:28;7.10;;;2.10;;
42200;SDS011;27869;51.442;7.540;2023-07-24T04:30:54;7.82;;;2.30;;
42200;SDS011;27869;51.442;7.540;2023-07-24T04:33:21;8.45;;;2.40;;
42200;SDS011;27869;51.442;7.540;2023-07-24T04:35:53;9.00;;;2.50;;
42200;SDS011;27869;51.442;7.540;2023-07-24T04:38:20;6.95;;;2.13;;
42200;SDS011;27869;51.442;7.540;2023-07-24T04:40:47;8.18;;;2.42;;
42200;SDS011;27869;51.442;7.540;2023-07-24T04:43:14;7.88;;;2.22;;
42200;SDS011;27869;51.442;7.540;2023-07-24T04:45:41;8.70;;;2.40;;
42200;SDS011;27869;51.442;7.540;2023-07-24T04:48:07;7.78;;;2.20;;
42200;SDS011;27869;51.442;7.540;2023-07-24T04:50:34;8.68;;;2.20;;
42200;SDS011;27869;51.442;7.540;2023-07-24T04:53:02;7.03;;;2.22;;
42200;SDS011;27869;51.442;7.540;2023-07-24T04:55:29;8.45;;;2.35;;
42200;SDS011;27869;51.442;7.540;2023-07-24T04:57:56;8.30;;;2.20;;
42200;SDS011;27869;51.442;7.540;2023-07-24T05:00:23;6.05;;;1.98;;
42200;SDS011;27869;51.442;7.540;2023-07-24T05:02:51;8.60;;;2.30;;
42200;SDS011;27869;51.442;7.540;2023-07-24T05:05:18;9.02;;;2.25;;
42200;SDS011;27869;51.442;7.540;2023-07-24T05:07:45;7.85;;;2.03;;
42200;SDS011;27869;51.442;7.540;2023-07-24T05:10:13;8.68;;;2.35;;
42200;SDS011;27869;51.442;7.540;2023-07-24T05:12:40;8.02;;;2.17;;
42200;SDS011;27869;51.442;7.540;2023-07-24T05:15:08;7.30;;;2.22;;
42200;SDS011;27869;51.442;7.540;2023-07-24T05:17:35;6.35;;;1.88;;
42200;SDS011;27869;51.442;7.540;2023-07-24T05:20:03;8.48;;;2.10;;
42200;SDS011;27869;51.442;7.540;2023-07-24T05:22:30;8.93;;;2.40;;
42200;SDS011;27869;51.442;7.540;2023-07-24T05:24:57;7.35;;;2.10;;
42200;SDS011;27869;51.442;7.540;2023-07-24T05:27:25;9.43;;;2.28;;
42200;SDS011;27869;51.442;7.540;2023-07-24T05:29:52;8.50;;;2.60;;
42200;SDS011;27869;51.442;7.540;2023-07-24T05:32:19;7.65;;;2.22;;
42200;SDS011;27869;51.442;7.540;2023-07-24T05:34:46;10.07;;;2.50;;
42200;SDS011;27869;51.442;7.540;2023-07-24T05:37:12;8.77;;;2.35;;
42200;SDS011;27869;51.442;7.540;2023-07-24T05:39:39;9.57;;;2.40;;
42200;SDS011;27869;51.442;7.540;2023-07-24T05:42:06;10.13;;;2.83;;
42200;SDS011;27869;51.442;7.540;2023-07-24T05:44:34;10.43;;;2.85;;
42200;SDS011;27869;51.442;7.540;2023-07-24T05:47:02;9.13;;;2.75;;
42200;SDS011;27869;51.442;7.540;2023-07-24T05:49:29;9.90;;;2.75;;
42200;SDS011;27869;51.442;7.540;2023-07-24T05:51:56;10.25;;;2.45;;
42200;SDS011;27869;51.442;7.540;2023-07-24T05:54:23;8.68;;;2.63;;
42200;SDS011;27869;51.442;7.540;2023-07-24T05:56:51;10.45;;;2.85;;
42200;SDS011;27869;51.442;7.540;2023-07-24T05:59:18;9.95;;;2.63;;
42200;SDS011;27869;51.442;7.540;2023-07-24T06:01:46;11.18;;;2.97;;
42200;SDS011;27869;51.442;7.540;2023-07-24T06:04:13;11.05;;;2.95;;
42200;SDS011;27869;51.442;7.540;2023-07-24T06:06:40;11.05;;;2.97;;
42200;SDS011;27869;51.442;7.540;2023-07-24T06:09:07;8.75;;;2.80;;
42200;SDS011;27869;51.442;7.540;2023-07-24T06:11:33;10.50;;;2.70;;
42200;SDS011;27869;51.442;7.540;2023-07-24T06:14:00;10.70;;;2.80;;
42200;SDS011;27869;51.442;7.540;2023-07-24T06:16:27;11.05;;;2.60;;
42200;SDS011;27869;51.442;7.540;2023-07-24T06:18:55;10.55;;;2.80;;
42200;SDS011;27869;51.442;7.540;2023-07-24T06:21:22;9.02;;;2.63;;
42200;SDS011;27869;51.442;7.540;2023-07-24T06:23:49;10.07;;;2.90;;
42200;SDS011;27869;51.442;7.540;2023-07-24T06:26:16;10.20;;;2.67;;
42200;SDS011;27869;51.442;7.540;2023-07-24T06:28:43;12.13;;;3.17;;
42200;SDS011;27869;51.442;7.540;2023-07-24T06:31:09;9.00;;;2.80;;
42200;SDS011;27869;51.442;7.540;2023-07-24T06:33:36;9.60;;;2.90;;
42200;SDS011;27869;51.442;7.540;2023-07-24T06:36:05;9.15;;;2.75;;
42200;SDS011;27869;51.442;7.540;2023-07-24T06:38:35;9.88;;;2.65;;
42200;SDS011;27869;51.442;7.540;2023-07-24T06:41:02;8.63;;;2.60;;
42200;SDS011;27869;51.442;7.540;2023-07-24T06:43:29;9.30;;;2.83;;
42200;SDS011;27869;51.442;7.540;2023-07-24T06:45:56;9.90;;;2.90;;
42200;SDS011;27869;51.442;7.540;2023-07-24T06:48:22;8.32;;;2.83;;
42200;SDS011;27869;51.442;7.540;2023-07-24T06:50:49;11.98;;;3.00;;
42200;SDS011;27869;51.442;7.540;2023-07-24T06:53:17;9.02;;;2.33;;
42200;SDS011;27869;51.442;7.540;2023-07-24T06:55:44;14.13;;;3.00;;
42200;SDS011;27869;51.442;7.540;2023-07-24T06:58:11;13.13;;;2.95;;
42200;SDS011;27869;51.442;7.540;2023-07-24T07:00:38;9.80;;;2.53;;
42200;SDS011;27869;51.442;7.540;2023-07-24T07:03:05;9.40;;;2.80;;
42200;SDS011;27869;51.442;7.540;2023-07-24T07:05:32;8.77;;;2.40;;
42200;SDS011;27869;51.442;7.540;2023-07-24T07:07:58;10.20;;;2.80;;
42200;SDS011;27869;51.442;7.540;2023-07-24T07:10:27;10.55;;;2.83;;
42200;SDS011;27869;51.442;7.540;2023-07-24T07:12:53;8.80;;;2.55;;
42200;SDS011;27869;51.442;7.540;2023-07-24T07:15:20;9.05;;;2.88;;
42200;SDS011;27869;51.442;7.540;2023-07-24T07:17:47;9.55;;;2.80;;
42200;SDS011;27869;51.442;7.540;2023-07-24T07:20:14;8.70;;;2.50;;
42200;SDS011;27869;51.442;7.540;2023-07-24T07:22:41;9.80;;;2.80;;
42200;SDS011;27869;51.442;7.540;2023-07-24T07:25:08;9.30;;;2.40;;
42200;SDS011;27869;51.442;7.540;2023-07-24T07:27:36;9.70;;;2.88;;
42200;SDS011;27869;51.442;7.540;2023-07-24T07:30:03;9.82;;;2.53;;
42200;SDS011;27869;51.442;7.540;2023-07-24T07:32:31;8.25;;;2.35;;
42200;SDS011;27869;51.442;7.540;2023-07-24T07:34:58;9.35;;;2.55;;
42200;SDS011;27869;51.442;7.540;2023-07-24T07:37:25;10.43;;;2.80;;
42200;SDS011;27869;51.442;7.540;2023-07-24T07:39:52;8.02;;;2.28;;
42200;SDS011;27869;51.442;7.540;2023-07-24T07:42:18;10.13;;;2.58;;
42200;SDS011;27869;51.442;7.540;2023-07-24T07:44:47;10.60;;;3.10;;
42200;SDS011;27869;51.442;7.540;2023-07-24T07:47:13;11.38;;;3.03;;
42200;SDS011;27869;51.442;7.540;2023-07-24T07:49:40;9.45;;;2.67;;
42200;SDS011;27869;51.442;7.540;2023-07-24T07:52:07;9.00;;;2.75;;
42200;SDS011;27869;51.442;7.540;2023-07-24T07:54:34;9.75;;;2.92;;
42200;SDS011;27869;51.442;7.540;2023-07-24T07:57:01;9.30;;;2.55;;
42200;SDS011;27869;51.442;7.540;2023-07-24T07:59:29;9.10;;;2.53;;
42200;SDS011;27869;51.442;7.540;2023-07-24T08:01:58;8.43;;;2.50;;
42200;SDS011;27869;51.442;7.540;2023-07-24T08:04:24;8.88;;;2.92;;
42200;SDS011;27869;51.442;7.540;2023-07-24T08:06:51;8.23;;;2.47;;
42200;SDS011;27869;51.442;7.540;2023-07-24T08:09:18;9.73;;;3.03;;
42200;SDS011;27869;51.442;7.540;2023-07-24T08:11:46;10.30;;;2.35;;
42200;SDS011;27869;51.442;7.540;2023-07-24T08:14:13;10.10;;;2.90;;
42200;SDS011;27869;51.442;7.540;2023-07-24T08:16:40;9.63;;;2.83;;
42200;SDS011;27869;51.442;7.540;2023-07-24T08:19:08;8.48;;;2.65;;
42200;SDS011;27869;51.442;7.540;2023-07-24T08:21:35;8.77;;;2.55;;
42200;SDS011;27869;51.442;7.540;2023-07-24T08:24:04;8.88;;;2.67;;
42200;SDS011;27869;51.442;7.540;2023-07-24T08:26:31;8.65;;;2.42;;
42200;SDS011;27869;51.442;7.540;2023-07-24T08:28:58;9.55;;;2.70;;
42200;SDS011;27869;51.442;7.540;2023-07-24T08:31:25;8.95;;;2.70;;
42200;SDS011;27869;51.442;7.540;2023-07-24T08:33:52;10.38;;;2.80;;
42200;SDS011;27869;51.442;7.540;2023-07-24T08:36:20;9.38;;;2.50;;
42200;SDS011;27869;51.442;7.540;2023-07-24T08:38:47;10.45;;;2.60;;
42200;SDS011;27869;51.442;7.540;2023-07-24T08:41:14;7.93;;;2.40;;
42200;SDS011;27869;51.442;7.540;2023-07-24T08:43:42;8.48;;;2.45;;
42200;SDS011;27869;51.442;7.540;2023-07-24T08:46:09;8.43;;;2.63;;
42200;SDS011;27869;51.442;7.540;2023-07-24T08:48:37;9.32;;;2.75;;
42200;SDS011;27869;51.442;7.540;2023-07-24T08:51:05;9.07;;;2.50;;
42200;SDS011;27869;51.442;7.540;2023-07-24T08:53:34;7.78;;;2.60;;
42200;SDS011;27869;51.442;7.540;2023-07-24T08:56:02;7.45;;;2.22;;
42200;SDS011;27869;51.442;7.540;2023-07-24T08:58:30;6.53;;;2.03;;
42200;SDS011;27869;51.442;7.540;2023-07-24T09:00:57;9.45;;;2.78;;
42200;SDS011;27869;51.442;7.540;2023-07-24T09:03:25;9.38;;;2.45;;
42200;SDS011;27869;51.442;7.540;2023-07-24T09:05:52;9.38;;;2.50;;
42200;SDS011;27869;51.442;7.540;2023-07-24T09:08:28;9.25;;;3.00;;
42200;SDS011;27869;51.442;7.540;2023-07-24T09:10:56;7.80;;;2.30;;
42200;SDS011;27869;51.442;7.540;2023-07-24T09:13:23;8.32;;;2.42;;
42200;SDS011;27869;51.442;7.540;2023-07-24T09:15:50;8.35;;;2.33;;
42200;SDS011;27869;51.442;7.540;2023-07-24T09:18:17;8.15;;;2.30;;
42200;SDS011;27869;51.442;7.540;2023-07-24T09:20:44;7.03;;;2.20;;
42200;SDS011;27869;51.442;7.540;2023-07-24T09:23:12;9.45;;;2.50;;
42200;SDS011;27869;51.442;7.540;2023-07-24T09:25:41;8.30;;;2.38;;
42200;SDS011;27869;51.442;7.540;2023-07-24T09:30:40;8.13;;;2.38;;
42200;SDS011;27869;51.442;7.540;2023-07-24T09:33:09;8.52;;;2.22;;
42200;SDS011;27869;51.442;7.540;2023-07-24T09:35:36;8.20;;;2.20;;
42200;SDS011;27869;51.442;7.540;2023-07-24T09:38:03;8.10;;;2.50;;
42200;SDS011;27869;51.442;7.540;2023-07-24T09:40:38;8.07;;;2.42;;
42200;SDS011;27869;51.442;7.540;2023-07-24T09:43:17;6.75;;;2.28;;
42200;SDS011;27869;51.442;7.540;2023-07-24T09:45:47;7.45;;;2.50;;
42200;SDS011;27869;51.442;7.540;2023-07-24T09:48:15;7.85;;;2.20;;
42200;SDS011;27869;51.442;7.540;2023-07-24T09:50:44;9.25;;;2.72;;
42200;SDS011;27869;51.442;7.540;2023-07-24T09:53:13;7.97;;;2.38;;
42200;SDS011;27869;51.442;7.540;2023-07-24T09:55:45;7.15;;;2.58;;
42200;SDS011;27869;51.442;7.540;2023-07-24T09:58:17;8.70;;;2.65;;
42200;SDS011;27869;51.442;7.540;2023-07-24T10:00:46;9.45;;;2.83;;
42200;SDS011;27869;51.442;7.540;2023-07-24T10:03:15;10.20;;;2.20;;
42200;SDS011;27869;51.442;7.540;2023-07-24T10:05:43;8.15;;;2.40;;
42200;SDS011;27869;51.442;7.540;2023-07-24T10:08:10;8.75;;;2.55;;
42200;SDS011;27869;51.442;7.540;2023-07-24T10:10:38;9.02;;;2.60;;
42200;SDS011;27869;51.442;7.540;2023-07-24T10:13:05;8.40;;;2.60;;
42200;SDS011;27869;51.442;7.540;2023-07-24T10:15:37;10.43;;;2.90;;
42200;SDS011;27869;51.442;7.540;2023-07-24T10:18:05;9.52;;;2.72;;
42200;SDS011;27869;51.442;7.540;2023-07-24T10:20:33;11.55;;;3.20;;
42200;SDS011;27869;51.442;7.540;2023-07-24T10:23:01;9.63;;;3.10;;
42200;SDS011;27869;51.442;7.540;2023-07-24T10:25:29;10.43;;;2.95;;
42200;SDS011;27869;51.442;7.540;2023-07-24T10:28:00;9.30;;;3.17;;
42200;SDS011;27869;51.442;7.540;2023-07-24T10:30:31;13.45;;;3.15;;
42200;SDS011;27869;51.442;7.540;2023-07-24T10:33:06;10.45;;;3.33;;
42200;SDS011;27869;51.442;7.540;2023-07-24T10:35:38;11.10;;;3.00;;
42200;SDS011;27869;51.442;7.540;2023-07-24T10:38:05;10.45;;;3.20;;
42200;SDS011;27869;51.442;7.540;2023-07-24T10:40:32;8.15;;;2.65;;
42200;SDS011;27869;51.442;7.540;2023-07-24T10:43:00;10.93;;;3.17;;
42200;SDS011;27869;51.442;7.540;2023-07-24T10:45:45;9.38;;;2.97;;
42200;SDS011;27869;51.442;7.540;2023-07-24T10:48:15;9.13;;;2.75;;
42200;SDS011;27869;51.442;7.540;2023-07-24T10:50:43;8.57;;;2.88;;
42200;SDS011;27869;51.442;7.540;2023-07-24T10:53:10;10.90;;;2.83;;
42200;SDS011;27869;51.442;7.540;2023-07-24T10:55:40;10.13;;;2.95;;
42200;SDS011;27869;51.442;7.540;2023-07-24T10:58:07;9.00;;;2.70;;
42200;SDS011;27869;51.442;7.540;2023-07-24T11:00:34;9.68;;;2.83;;
42200;SDS011;27869;51.442;7.540;2023-07-24T11:03:01;9.48;;;2.70;;
42200;SDS011;27869;51.442;7.540;2023-07-24T11:05:30;10.48;;;2.72;;
42200;SDS011;27869;51.442;7.540;2023-07-24T11:07:58;13.48;;;3.22;;
42200;SDS011;27869;51.442;7.540;2023-07-24T11:10:25;9.63;;;2.88;;
42200;SDS011;27869;51.442;7.540;2023-07-24T11:12:53;12.57;;;2.70;;
42200;SDS011;27869;51.442;7.540;2023-07-24T11:15:23;10.30;;;2.80;;
42200;SDS011;27869;51.442;7.540;2023-07-24T11:17:52;8.57;;;2.53;;
42200;SDS011;27869;51.442;7.540;2023-07-24T11:20:20;9.13;;;2.85;;
42200;SDS011;27869;51.442;7.540;2023-07-24T11:22:48;8.85;;;2.90;;
42200;SDS011;27869;51.442;7.540;2023-07-24T11:25:15;12.65;;;2.80;;
42200;SDS011;27869;51.442;7.540;2023-07-24T11:27:43;10.07;;;3.15;;
42200;SDS011;27869;51.442;7.540;2023-07-24T11:30:11;8.65;;;2.80;;
42200;SDS011;27869;51.442;7.540;2023-07-24T11:32:39;9.93;;;2.90;;
42200;SDS011;27869;51.442;7.540;2023-07-24T11:35:07;8.32;;;2.50;;
42200;SDS011;27869;51.442;7.540;2023-07-24T11:37:34;8.38;;;2.63;;
42200;SDS011;27869;51.442;7.540;2023-07-24T11:40:03;7.93;;;2.42;;
42200;SDS011;27869;51.442;7.540;2023-07-24T11:42:37;8.85;;;2.65;;
42200;SDS011;27869;51.442;7.540;2023-07-24T11:45:05;8.57;;;2.50;;
42200;SDS011;27869;51.442;7.540;2023-07-24T11:47:44;8.25;;;2.22;;
42200;SDS011;27869;51.442;7.540;2023-07-24T11:50:12;8.85;;;2.55;;
42200;SDS011;27869;51.442;7.540;2023-07-24T11:52:39;7.78;;;2.42;;
42200;SDS011;27869;51.442;7.540;2023-07-24T11:55:10;8.35;;;2.40;;
42200;SDS011;27869;51.442;7.540;2023-07-24T12:00:05;7.72;;;2.40;;
42200;SDS011;27869;51.442;7.540;2023-07-24T12:02:43;9.13;;;2.75;;
42200;SDS011;27869;51.442;7.540;2023-07-24T12:05:10;7.50;;;2.25;;
42200;SDS011;27869;51.442;7.540;2023-07-24T12:07:37;7.68;;;2.20;;
42200;SDS011;27869;51.442;7.540;2023-07-24T12:10:05;10.45;;;2.80;;
42200;SDS011;27869;51.442;7.540;2023-07-24T12:12:38;10.07;;;2.53;;
42200;SDS011;27869;51.442;7.540;2023-07-24T12:15:06;8.18;;;2.28;;
42200;SDS011;27869;51.442;7.540;2023-07-24T12:17:33;9.52;;;3.00;;
42200;SDS011;27869;51.442;7.540;2023-07-24T12:20:00;10.13;;;2.33;;
42200;SDS011;27869;51.442;7.540;2023-07-24T12:22:29;9.68;;;2.85;;
42200;SDS011;27869;51.442;7.540;2023-07-24T12:24:56;11.05;;;2.75;;
42200;SDS011;27869;51.442;7.540;2023-07-24T12:27:23;13.00;;;3.00;;
42200;SDS011;27869;51.442;7.540;2023-07-24T12:29:58;6.05;;;1.33;;
42200;SDS011;27869;51.442;7.540;2023-07-24T12:32:25;7.10;;;1.10;;
42200;SDS011;27869;51.442;7.540;2023-07-24T12:34:52;5.20;;;1.33;;
42200;SDS011;27869;51.442;7.540;2023-07-24T12:37:19;5.35;;;1.20;;
42200;SDS011;27869;51.442;7.540;2023-07-24T12:39:46;6.53;;;1.33;;
42200;SDS011;27869;51.442;7.540;2023-07-24T12:42:14;10.57;;;2.42;;
42200;SDS011;27869;51.442;7.540;2023-07-24T12:44:42;7.97;;;1.88;;
42200;SDS011;27869;51.442;7.540;2023-07-24T12:47:11;4.90;;;1.10;;
42200;SDS011;27869;51.442;7.540;2023-07-24T12:52:05;5.72;;;0.80;;
42200;SDS011;27869;51.442;7.540;2023-07-24T12:54:32;5.68;;;1.00;;
42200;SDS011;27869;51.442;7.540;2023-07-24T12:56:59;2.30;;;0.70;;
42200;SDS011;27869;51.442;7.540;2023-07-24T12:59:26;4.25;;;0.90;;
42200;SDS011;27869;51.442;7.540;2023-07-24T13:01:53;4.03;;;0.90;;
42200;SDS011;27869;51.442;7.540;2023-07-24T13:04:21;4.90;;;0.95;;
42200;SDS011;27869;51.442;7.540;2023-07-24T13:06:48;6.30;;;1.00;;
42200;SDS011;27869;51.442;7.540;2023-07-24T13:09:15;3.35;;;1.00;;
42200;SDS011;27869;51.442;7.540;2023-07-24T13:11:44;3.47;;;1.05;;
42200;SDS011;27869;51.442;7.540;2023-07-24T13:14:12;5.05;;;1.00;;
42200;SDS011;27869;51.442;7.540;2023-07-24T13:16:39;3.80;;;1.08;;
42200;SDS011;27869;51.442;7.540;2023-07-24T13:19:06;1.52;;;0.75;;
42200;SDS011;27869;51.442;7.540;2023-07-24T13:21:34;3.95;;;0.90;;
42200;SDS011;27869;51.442;7.540;2023-07-24T13:24:01;4.07;;;0.98;;
42200;SDS011;27869;51.442;7.540;2023-07-24T13:26:28;4.50;;;1.20;;
42200;SDS011;27869;51.442;7.540;2023-07-24T13:28:55;2.92;;;0.88;;
42200;SDS011;27869;51.442;7.540;2023-07-24T13:31:22;7.00;;;1.05;;
42200;SDS011;27869;51.442;7.540;2023-07-24T13:33:49;4.90;;;1.30;;
42200;SDS011;27869;51.442;7.540;2023-07-24T13:36:16;2.10;;;0.90;;
42200;SDS011;27869;51.442;7.540;2023-07-24T13:38:44;4.35;;;1.15;;
42200;SDS011;27869;51.442;7.540;2023-07-24T13:41:11;4.00;;;1.20;;
42200;SDS011;27869;51.442;7.540;2023-07-24T13:43:38;5.35;;;1.38;;
42200;SDS011;27869;51.442;7.540;2023-07-24T13:46:05;4.00;;;1.10;;
42200;SDS011;27869;51.442;7.540;2023-07-24T13:48:33;5.63;;;1.40;;
42200;SDS011;27869;51.442;7.540;2023-07-24T13:51:01;3.83;;;1.23;;
42200;SDS011;27869;51.442;7.540;2023-07-24T13:53:28;3.72;;;1.13;;
42200;SDS011;27869;51.442;7.540;2023-07-24T13:55:56;3.30;;;0.88;;
42200;SDS011;27869;51.442;7.540;2023-07-24T13:58:23;5.50;;;1.33;;
42200;SDS011;27869;51.442;7.540;2023-07-24T14:00:50;3.50;;;1.20;;
42200;SDS011;27869;51.442;7.540;2023-07-24T14:03:17;5.72;;;1.33;;
42200;SDS011;27869;51.442;7.540;2023-07-24T14:05:44;3.95;;;1.08;;
42200;SDS011;27869;51.442;7.540;2023-07-24T14:08:11;5.60;;;1.15;;
42200;SDS011;27869;51.442;7.540;2023-07-24T14:10:38;3.90;;;1.02;;
42200;SDS011;27869;51.442;7.540;2023-07-24T14:13:06;4.47;;;1.23;;
42200;SDS011;27869;51.442;7.540;2023-07-24T14:15:33;6.22;;;1.35;;
42200;SDS011;27869;51.442;7.540;2023-07-24T14:17:59;3.80;;;1.35;;
42200;SDS011;27869;51.442;7.540;2023-07-24T14:20:26;3.75;;;1.15;;
42200;SDS011;27869;51.442;7.540;2023-07-24T14:22:53;2.42;;;1.02;;
42200;SDS011;27869;51.442;7.540;2023-07-24T14:25:20;5.78;;;1.30;;
42200;SDS011;27869;51.442;7.540;2023-07-24T14:27:47;4.70;;;1.25;;
42200;SDS011;27869;51.442;7.540;2023-07-24T14:30:15;4.00;;;1.13;;
42200;SDS011;27869;51.442;7.540;2023-07-24T14:32:42;3.17;;;1.13;;
42200;SDS011;27869;51.442;7.540;2023-07-24T14:35:11;3.90;;;1.20;;
42200;SDS011;27869;51.442;7.540;2023-07-24T14:37:37;5.18;;;1.40;;
42200;SDS011;27869;51.442;7.540;2023-07-24T14:40:05;3.85;;;1.30;;
42200;SDS011;27869;51.442;7.540;2023-07-24T14:42:32;4.20;;;1.40;;
42200;SDS011;27869;51.442;7.540;2023-07-24T14:44:59;3.80;;;1.40;;
42200;SDS011;27869;51.442;7.540;2023-07-24T14:47:29;6.85;;;1.60;;
42200;SDS011;27869;51.442;7.540;2023-07-24T14:49:57;3.75;;;1.13;;
42200;SDS011;27869;51.442;7.540;2023-07-24T14:52:24;3.92;;;1.20;;
42200;SDS011;27869;51.442;7.540;2023-07-24T14:54:51;3.88;;;1.30;;
42200;SDS011;27869;51.442;7.540;2023-07-24T14:57:17;4.55;;;1.20;;
42200;SDS011;27869;51.442;7.540;2023-07-24T14:59:44;4.53;;;1.42;;